createdAt,value
2019-04-26T00:02:20.184Z,1.03
2019-04-26T00:04:52.582Z,1.10
2019-04-26T00:07:25.962Z,1.00
2019-04-26T00:10:00.791Z,1.27
2019-04-26T00:12:58.164Z,1.00
2019-04-26T00:16:01.026Z,1.27
2019-04-26T00:18:32.950Z,1.10
2019-04-26T00:21:04.762Z,1.10
2019-04-26T00:23:37.080Z,1.33
2019-04-26T00:26:09.230Z,1.10
2019-04-26T00:28:41.106Z,1.10
2019-04-26T00:31:12.974Z,1.10
2019-04-26T00:33:44.812Z,1.27
2019-04-26T00:36:16.786Z,1.10
2019-04-26T00:38:48.667Z,1.00
2019-04-26T00:41:21.225Z,0.90
2019-04-26T00:43:54.266Z,1.10
2019-04-26T00:46:29.758Z,1.00
2019-04-26T00:49:04.592Z,1.07
2019-04-26T00:51:37.167Z,1.00
2019-04-26T00:54:09.698Z,0.90
2019-04-26T00:56:42.138Z,0.90
2019-04-26T00:59:15.154Z,1.00
2019-04-26T01:01:52.318Z,1.07
2019-04-26T01:04:25.055Z,1.20
2019-04-26T01:06:58.899Z,1.17
2019-04-26T01:09:30.830Z,1.00
2019-04-26T01:12:02.703Z,1.40
2019-04-26T01:14:34.502Z,1.33
2019-04-26T01:17:06.575Z,1.13
2019-04-26T01:19:39.650Z,1.20
2019-04-26T01:22:15.690Z,1.10
2019-04-26T01:24:50.063Z,1.07
2019-04-26T01:27:25.526Z,1.20
2019-04-26T01:30:01.107Z,1.20
2019-04-26T01:32:34.583Z,1.10
2019-04-26T01:35:06.458Z,1.07
2019-04-26T01:37:43.025Z,0.97
2019-04-26T01:40:20.582Z,1.10
2019-04-26T01:43:11.759Z,1.07
2019-04-26T01:46:04.639Z,1.23
2019-04-26T01:48:44.532Z,1.20
2019-04-26T01:51:22.708Z,1.07
2019-04-26T01:53:55.137Z,1.00
2019-04-26T01:56:31.725Z,1.00
2019-04-26T01:59:04.650Z,1.07
2019-04-26T02:02:11.091Z,1.10
2019-04-26T02:04:46.630Z,1.20
2019-04-26T02:07:38.100Z,1.00
2019-04-26T02:10:12.208Z,1.00
2019-04-26T02:12:47.763Z,1.13
2019-04-26T02:15:23.044Z,1.00
2019-04-26T02:17:59.037Z,1.20
2019-04-26T02:21:27.978Z,1.10
2019-04-26T02:24:15.894Z,1.10
2019-04-26T02:26:49.597Z,1.00
2019-04-26T02:29:27.078Z,1.00
2019-04-26T02:32:05.354Z,1.30
2019-04-26T02:34:38.480Z,1.20
2019-04-26T02:37:13.259Z,1.20
2019-04-26T02:39:45.702Z,1.40
2019-04-26T02:42:30.932Z,1.10
2019-04-26T02:45:32.393Z,1.30
2019-04-26T02:48:32.722Z,1.30
2019-04-26T02:51:10.692Z,1.40
2019-04-26T02:54:05.145Z,1.00
2019-04-26T02:56:40.948Z,1.30
2019-04-26T02:59:38.745Z,1.20
2019-04-26T03:02:23.676Z,1.17
2019-04-26T03:05:06.124Z,1.30
2019-04-26T03:08:00.264Z,1.10
2019-04-26T03:10:40.388Z,1.20
2019-04-26T03:13:39.802Z,1.00
2019-04-26T03:16:37.406Z,1.27
2019-04-26T03:19:23.005Z,1.30
2019-04-26T03:22:17.548Z,1.20
2019-04-26T03:25:03.579Z,1.27
2019-04-26T03:28:14.803Z,1.10
2019-04-26T03:31:01.513Z,1.40
2019-04-26T03:34:14.564Z,1.30
2019-04-26T03:37:21.835Z,1.27
2019-04-26T03:40:05.338Z,1.20
2019-04-26T03:43:14.271Z,1.20
2019-04-26T03:46:02.575Z,1.20
2019-04-26T03:49:15.251Z,1.30
2019-04-26T03:51:55.978Z,1.20
2019-04-26T03:54:30.797Z,1.40
2019-04-26T03:57:19.083Z,1.17
2019-04-26T04:00:23.548Z,1.33
2019-04-26T04:03:37.501Z,1.30
2019-04-26T04:06:15.825Z,1.57
2019-04-26T04:08:55.799Z,1.40
2019-04-26T04:12:09.533Z,1.40
2019-04-26T04:14:48.918Z,1.33
2019-04-26T04:17:38.751Z,1.40
2019-04-26T04:20:49.672Z,1.37
2019-04-26T04:23:51.310Z,1.50
2019-04-26T04:26:29.705Z,1.60
2019-04-26T04:29:42.906Z,1.63
2019-04-26T04:32:18.714Z,1.60
2019-04-26T04:34:54.350Z,1.27
2019-04-26T04:37:29.867Z,1.60
2019-04-26T04:40:54.549Z,1.70
2019-04-26T04:43:48.793Z,1.60
2019-04-26T04:47:22.652Z,1.50
2019-04-26T04:50:02.777Z,1.50
2019-04-26T04:53:14.021Z,1.70
2019-04-26T04:56:23.093Z,1.70
2019-04-26T04:58:58.786Z,1.60
2019-04-26T05:02:00.583Z,1.77
2019-04-26T05:05:06.444Z,2.00
2019-04-26T05:08:13.175Z,1.57
2019-04-26T05:10:57.324Z,1.87
2019-04-26T05:13:38.929Z,1.93
2019-04-26T05:17:02.789Z,1.80
2019-04-26T05:20:05.395Z,1.90
2019-04-26T05:23:14.945Z,1.70
2019-04-26T05:26:37.555Z,1.43
2019-04-26T05:29:56.171Z,1.50
2019-04-26T05:33:05.510Z,1.70
2019-04-26T05:36:03.266Z,1.90
2019-04-26T05:39:13.139Z,1.87
2019-04-26T05:42:20.484Z,1.90
2019-04-26T05:45:18.465Z,1.50
2019-04-26T05:48:08.466Z,1.70
2019-04-26T05:51:31.969Z,1.90
2019-04-26T05:54:53.946Z,2.00
2019-04-26T05:57:37.955Z,1.47
2019-04-26T06:00:46.451Z,1.80
2019-04-26T06:03:52.567Z,1.60
2019-04-26T06:06:41.128Z,1.50
2019-04-26T06:10:12.666Z,1.73
2019-04-26T06:13:02.966Z,1.70
2019-04-26T06:16:00.145Z,1.97
2019-04-26T06:19:08.840Z,1.87
2019-04-26T06:22:08.358Z,1.90
2019-04-26T06:25:10.427Z,1.73
2019-04-26T06:27:53.516Z,1.67
2019-04-26T06:30:45.709Z,2.30
2019-04-26T06:33:43.883Z,2.00
2019-04-26T06:36:25.823Z,2.43
2019-04-26T06:39:38.942Z,2.20
2019-04-26T06:42:58.311Z,1.90
2019-04-26T06:46:04.710Z,2.10
2019-04-26T06:49:08.981Z,2.10
2019-04-26T06:51:47.618Z,2.10
2019-04-26T06:54:56.350Z,2.17
2019-04-26T06:58:02.887Z,3.70
2019-04-26T07:01:18.018Z,2.30
2019-04-26T07:04:59.151Z,2.37
2019-04-26T07:08:17.828Z,1.97
2019-04-26T07:11:41.583Z,2.33
2019-04-26T07:14:39.687Z,2.40
2019-04-26T07:17:16.901Z,2.33
2019-04-26T07:20:24.534Z,2.30
2019-04-26T07:23:30.337Z,2.30
2019-04-26T07:26:26.468Z,2.10
2019-04-26T07:29:07.388Z,2.23
2019-04-26T07:31:52.722Z,2.30
2019-04-26T07:35:04.618Z,2.60
2019-04-26T07:38:02.696Z,2.57
2019-04-26T07:41:14.505Z,2.50
2019-04-26T07:44:20.470Z,3.00
2019-04-26T07:47:21.764Z,2.40
2019-04-26T07:50:48.402Z,2.60
2019-04-26T07:53:44.827Z,2.73
2019-04-26T07:56:42.037Z,2.47
2019-04-26T08:00:08.677Z,2.60
2019-04-26T08:03:04.138Z,2.60
2019-04-26T08:06:11.617Z,3.20
2019-04-26T08:08:53.590Z,3.27
2019-04-26T08:11:35.022Z,2.83
2019-04-26T08:14:40.002Z,2.90
2019-04-26T08:17:39.614Z,2.90
2019-04-26T08:20:44.573Z,2.90
2019-04-26T08:23:38.613Z,2.90
2019-04-26T08:26:00.655Z,3.13
2019-04-26T08:28:36.782Z,3.20
2019-04-26T08:31:15.527Z,3.27
2019-04-26T08:33:54.174Z,3.20
2019-04-26T08:36:29.675Z,3.40
2019-04-26T08:39:02.135Z,3.60
2019-04-26T08:41:39.152Z,3.90
2019-04-26T08:44:21.418Z,3.67
2019-04-26T08:47:06.030Z,3.83
2019-04-26T08:49:55.013Z,4.10
2019-04-26T08:52:31.276Z,3.67
2019-04-26T08:55:06.022Z,3.97
2019-04-26T08:57:42.700Z,3.73
2019-04-26T09:00:42.956Z,4.60
2019-04-26T09:03:39.718Z,4.17
2019-04-26T09:06:31.163Z,4.30
2019-04-26T09:09:18.227Z,4.10
2019-04-26T09:11:59.458Z,4.00
2019-04-26T09:14:27.327Z,4.17
2019-04-26T09:16:59.810Z,4.37
2019-04-26T09:19:32.271Z,4.10
2019-04-26T09:22:13.133Z,4.57
2019-04-26T09:24:55.121Z,3.97
2019-04-26T09:27:35.767Z,3.90
2019-04-26T09:30:38.568Z,3.67
2019-04-26T09:33:35.897Z,4.40
2019-04-26T09:36:06.170Z,4.30
2019-04-26T09:38:38.424Z,3.80
2019-04-26T09:41:10.394Z,3.80
2019-04-26T09:43:50.528Z,3.50
2019-04-26T09:46:37.061Z,4.03
2019-04-26T09:49:30.845Z,3.97
2019-04-26T09:52:03.235Z,4.03
2019-04-26T09:54:36.640Z,3.93
2019-04-26T09:57:19.282Z,3.63
2019-04-26T09:59:51.065Z,3.90
2019-04-26T10:02:24.459Z,3.80
2019-04-26T10:04:56.355Z,4.20
2019-04-26T10:07:29.023Z,3.40
2019-04-26T10:10:01.431Z,3.70
2019-04-26T10:12:45.110Z,3.80
2019-04-26T10:15:42.526Z,3.80
2019-04-26T10:18:16.569Z,3.97
2019-04-26T10:20:49.014Z,3.80
2019-04-26T10:23:20.801Z,3.70
2019-04-26T10:25:55.135Z,3.73
2019-04-26T10:28:27.458Z,3.80
2019-04-26T10:30:59.403Z,4.00
2019-04-26T10:33:32.525Z,3.70
2019-04-26T10:36:04.879Z,3.50
2019-04-26T10:38:38.706Z,3.60
2019-04-26T10:41:11.058Z,3.80
2019-04-26T10:43:44.068Z,3.80
2019-04-26T10:46:24.452Z,3.50
2019-04-26T10:49:08.239Z,3.00
2019-04-26T10:51:38.592Z,3.30
2019-04-26T10:54:18.183Z,3.10
2019-04-26T10:57:09.237Z,3.47
2019-04-26T10:59:54.586Z,3.13
2019-04-26T11:02:31.407Z,3.00
2019-04-26T11:05:03.920Z,2.67
2019-04-26T11:07:35.838Z,3.00
2019-04-26T11:10:08.594Z,2.73
2019-04-26T11:12:43.424Z,2.47
2019-04-26T11:15:15.920Z,2.60
2019-04-26T11:17:49.891Z,2.27
2019-04-26T11:20:23.288Z,2.27
2019-04-26T11:22:55.555Z,2.10
2019-04-26T11:25:28.247Z,2.20
2019-04-26T11:28:01.123Z,1.97
2019-04-26T11:30:33.694Z,2.13
2019-04-26T11:33:07.255Z,2.10
2019-04-26T11:35:39.200Z,2.07
2019-04-26T11:38:11.673Z,2.00
2019-04-26T11:40:44.455Z,1.87
2019-04-26T11:43:19.529Z,2.10
2019-04-26T11:46:03.550Z,1.80
2019-04-26T11:48:28.955Z,1.70
2019-04-26T11:50:59.828Z,1.70
2019-04-26T11:53:33.470Z,1.50
2019-04-26T11:56:05.810Z,1.60
2019-04-26T11:58:39.293Z,1.63
2019-04-26T12:01:13.782Z,1.60
2019-04-26T12:04:03.717Z,1.50
2019-04-26T12:06:50.427Z,1.60
2019-04-26T12:09:30.608Z,1.70
2019-04-26T12:12:04.884Z,1.87
2019-04-26T12:14:37.421Z,1.90
2019-04-26T12:17:09.630Z,1.70
2019-04-26T12:19:43.497Z,1.60
2019-04-26T12:22:15.442Z,1.60
2019-04-26T12:24:47.749Z,1.77
2019-04-26T12:27:19.943Z,1.67
2019-04-26T12:29:52.343Z,1.70
2019-04-26T12:32:24.959Z,1.70
2019-04-26T12:34:56.914Z,1.53
2019-04-26T12:37:28.734Z,2.10
2019-04-26T12:40:01.075Z,1.70
2019-04-26T12:42:34.705Z,1.70
2019-04-26T12:45:24.130Z,1.80
2019-04-26T12:47:58.739Z,2.00
2019-04-26T12:50:36.451Z,1.77
2019-04-26T12:53:06.070Z,1.87
2019-04-26T12:55:38.433Z,2.10
2019-04-26T12:58:11.247Z,1.97
2019-04-26T13:00:53.941Z,1.93
2019-04-26T13:03:25.044Z,1.90
2019-04-26T13:05:58.185Z,1.90
2019-04-26T13:08:30.617Z,2.10
2019-04-26T13:11:16.099Z,2.40
2019-04-26T13:13:58.024Z,2.20
2019-04-26T13:17:01.174Z,2.17
2019-04-26T13:19:31.746Z,2.20
2019-04-26T13:22:04.566Z,2.07
2019-04-26T13:24:42.471Z,2.10
2019-04-26T13:27:15.408Z,2.20
2019-04-26T13:29:48.307Z,2.13
2019-04-26T13:32:22.207Z,2.30
2019-04-26T13:34:53.979Z,2.27
2019-04-26T13:37:32.152Z,2.40
2019-04-26T13:40:05.206Z,2.50
2019-04-26T13:42:37.587Z,2.47
2019-04-26T13:45:31.928Z,2.33
2019-04-26T13:48:21.207Z,2.70
2019-04-26T13:51:01.333Z,3.00
2019-04-26T13:53:31.870Z,2.87
2019-04-26T13:56:04.254Z,3.13
2019-04-26T13:58:36.620Z,2.67
2019-04-26T14:01:10.259Z,3.10
2019-04-26T14:03:43.949Z,3.43
2019-04-26T14:06:15.828Z,4.00
2019-04-26T14:08:47.678Z,4.00
2019-04-26T14:11:20.075Z,3.80
2019-04-26T14:14:01.760Z,3.73
2019-04-26T14:16:34.384Z,4.07
2019-04-26T14:19:06.397Z,3.87
2019-04-26T14:21:39.477Z,3.90
2019-04-26T14:24:29.936Z,4.27
2019-04-26T14:27:05.034Z,4.33
2019-04-26T14:29:37.516Z,5.00
2019-04-26T14:32:09.525Z,5.60
2019-04-26T14:34:42.019Z,5.30
2019-04-26T14:37:15.441Z,5.20
2019-04-26T14:39:50.485Z,5.40
2019-04-26T14:42:33.029Z,5.77
2019-04-26T14:44:56.033Z,5.13
2019-04-26T14:47:30.416Z,4.83
2019-04-26T14:50:15.654Z,5.53
2019-04-26T14:52:48.598Z,5.07
2019-04-26T14:55:22.874Z,4.53
2019-04-26T14:57:56.074Z,4.30
2019-04-26T15:00:31.521Z,4.87
2019-04-26T15:03:17.252Z,4.80
2019-04-26T15:05:59.763Z,5.57
2019-04-26T15:08:35.791Z,5.73
2019-04-26T15:11:13.699Z,5.93
2019-04-26T15:13:46.027Z,6.37
2019-04-26T15:16:18.341Z,6.00
2019-04-26T15:18:50.519Z,5.77
2019-04-26T15:21:27.420Z,6.23
2019-04-26T15:24:00.405Z,5.93
2019-04-26T15:26:32.896Z,6.20
2019-04-26T15:29:26.844Z,5.37
2019-04-26T15:31:57.337Z,5.90
2019-04-26T15:34:31.451Z,4.97
2019-04-26T15:37:16.031Z,5.03
2019-04-26T15:39:59.034Z,4.60
2019-04-26T15:42:41.225Z,4.63
2019-04-26T15:45:27.832Z,5.03
2019-04-26T15:48:50.364Z,5.43
2019-04-26T15:51:34.588Z,4.10
2019-04-26T15:54:07.613Z,4.20
2019-04-26T15:56:39.935Z,4.07
2019-04-26T15:59:12.812Z,4.07
2019-04-26T16:01:48.945Z,3.70
2019-04-26T16:04:19.382Z,4.10
2019-04-26T16:06:52.207Z,4.37
2019-04-26T16:09:24.119Z,3.27
2019-04-26T16:11:56.414Z,3.37
2019-04-26T16:14:31.431Z,3.40
2019-04-26T16:17:06.420Z,3.40
2019-04-26T16:19:36.638Z,3.40
2019-04-26T16:22:08.533Z,2.90
2019-04-26T16:24:40.887Z,2.80
2019-04-26T16:27:14.029Z,3.00
2019-04-26T16:30:10.492Z,3.00
2019-04-26T16:32:59.998Z,3.03
2019-04-26T16:35:33.018Z,2.60
2019-04-26T16:38:22.921Z,2.90
2019-04-26T16:41:03.300Z,3.20
2019-04-26T16:43:40.358Z,2.80
2019-04-26T16:46:14.741Z,3.00
2019-04-26T16:48:44.483Z,2.80
2019-04-26T16:51:16.105Z,2.40
2019-04-26T16:56:25.960Z,2.37
2019-04-26T16:58:55.310Z,2.40
2019-04-26T17:01:28.447Z,2.47
2019-04-26T17:04:00.875Z,2.37
2019-04-26T17:06:33.215Z,2.13
2019-04-26T17:09:06.657Z,2.80
2019-04-26T17:09:50.913Z,2.07
2019-04-26T17:11:41.416Z,2.10
2019-04-26T17:14:13.847Z,2.30
2019-04-26T17:16:45.712Z,2.30
2019-04-26T17:19:19.820Z,2.20
2019-04-26T17:22:01.035Z,2.03
2019-04-26T17:24:50.906Z,2.20
2019-04-26T17:27:25.141Z,2.40
2019-04-26T17:29:57.057Z,2.17
2019-04-26T17:32:29.899Z,2.50
2019-04-26T17:35:05.996Z,2.10
2019-04-26T17:37:35.724Z,2.37
2019-04-26T17:40:08.279Z,2.60
2019-04-26T17:42:40.819Z,2.60
2019-04-26T17:45:12.775Z,2.43
2019-04-26T17:47:45.441Z,2.50
2019-04-26T17:50:17.772Z,2.03
2019-04-26T17:52:51.419Z,2.47
2019-04-26T17:55:23.193Z,2.47
2019-04-26T17:58:09.422Z,2.73
2019-04-26T18:00:44.616Z,2.83
2019-04-26T18:03:02.927Z,3.17
2019-04-26T18:05:50.032Z,2.57
2019-04-26T18:08:31.361Z,2.90
2019-04-26T18:10:42.890Z,2.90
2019-04-26T18:13:17.625Z,2.67
2019-04-26T18:15:49.864Z,2.87
2019-04-26T18:18:39.536Z,3.13
2019-04-26T18:21:33.508Z,2.70
2019-04-26T18:24:05.883Z,2.70
2019-04-26T18:26:38.715Z,3.00
2019-04-26T18:29:10.607Z,2.80
2019-04-26T18:31:45.715Z,3.07
2019-04-26T18:34:17.646Z,2.87
2019-04-26T18:36:49.869Z,4.07
2019-04-26T18:39:26.289Z,2.90
2019-04-26T18:41:58.235Z,3.13
2019-04-26T18:44:36.923Z,3.10
2019-04-26T18:47:27.969Z,3.17
2019-04-26T18:49:59.375Z,2.70
2019-04-26T18:52:33.088Z,2.73
2019-04-26T18:55:30.157Z,2.87
2019-04-26T18:58:03.605Z,3.00
2019-04-26T19:00:37.091Z,2.83
2019-04-26T19:03:09.071Z,2.77
2019-04-26T19:05:43.145Z,2.63
2019-04-26T19:08:22.360Z,3.20
2019-04-26T19:10:59.173Z,2.73
2019-04-26T19:13:53.449Z,3.17
2019-04-26T19:16:46.423Z,2.97
2019-04-26T19:19:35.835Z,3.30
2019-04-26T19:22:13.100Z,3.20
2019-04-26T19:24:57.512Z,3.03
2019-04-26T19:27:27.738Z,3.33
2019-04-26T19:30:04.333Z,3.40
2019-04-26T19:32:42.437Z,3.23
2019-04-26T19:35:25.843Z,3.57
2019-04-26T19:37:58.227Z,3.30
2019-04-26T19:40:30.700Z,3.87
2019-04-26T19:43:07.856Z,3.60
2019-04-26T19:45:58.183Z,4.23
2019-04-26T19:48:49.532Z,3.40
2019-04-26T19:51:41.470Z,3.57
2019-04-26T19:54:23.228Z,3.73
2019-04-26T19:57:03.742Z,3.73
2019-04-26T19:59:35.038Z,4.30
2019-04-26T20:02:07.410Z,4.00
2019-04-26T20:04:41.919Z,4.10
2019-04-26T20:07:13.857Z,4.00
2019-04-26T20:09:48.230Z,4.13
2019-04-26T20:12:23.371Z,3.93
2019-04-26T20:14:58.411Z,4.00
2019-04-26T20:17:28.895Z,4.33
2019-04-26T20:20:02.072Z,4.27
2019-04-26T20:22:36.590Z,3.93
2019-04-26T20:25:08.713Z,4.10
2019-04-26T20:27:41.435Z,4.33
2019-04-26T20:30:24.437Z,4.50
2019-04-26T20:32:56.474Z,4.00
2019-04-26T20:35:28.615Z,4.77
2019-04-26T20:38:04.553Z,4.70
2019-04-26T20:40:34.659Z,4.47
2019-04-26T20:43:10.931Z,4.70
2019-04-26T20:45:42.668Z,5.10
2019-04-26T20:48:15.757Z,4.73
2019-04-26T20:50:47.672Z,5.33
2019-04-26T20:53:19.481Z,5.10
2019-04-26T20:55:52.813Z,5.40
2019-04-26T20:58:26.312Z,5.10
2019-04-26T21:00:58.287Z,5.00
2019-04-26T21:03:31.830Z,5.40
2019-04-26T21:06:22.479Z,5.57
2019-04-26T21:08:59.110Z,6.00
2019-04-26T21:11:30.242Z,5.53
2019-04-26T21:14:07.640Z,5.73
2019-04-26T21:16:36.998Z,6.20
2019-04-26T21:19:12.843Z,6.50
2019-04-26T21:21:48.357Z,6.47
2019-04-26T21:24:19.617Z,6.63
2019-04-26T21:27:06.331Z,6.27
2019-04-26T21:29:58.842Z,6.47
2019-04-26T21:32:44.708Z,6.63
2019-04-26T21:35:20.553Z,7.10
2019-04-26T21:38:08.100Z,6.73
2019-04-26T21:40:45.820Z,6.47
2019-04-26T21:43:17.709Z,6.97
2019-04-26T21:45:49.996Z,7.43
2019-04-26T21:48:23.521Z,6.63
2019-04-26T21:50:55.968Z,6.73
2019-04-26T21:53:29.831Z,7.43
2019-04-26T21:56:03.019Z,6.93
2019-04-26T21:58:35.041Z,7.23
2019-04-26T22:01:17.441Z,8.13
2019-04-26T22:03:54.116Z,6.93
2019-04-26T22:06:25.055Z,7.10
2019-04-26T22:09:14.962Z,7.53
2019-04-26T22:11:49.387Z,6.97
2019-04-26T22:14:27.330Z,7.60
2019-04-26T22:17:13.606Z,8.43
2019-04-26T22:20:06.955Z,8.17
2019-04-26T22:22:54.473Z,8.20
2019-04-26T22:25:30.447Z,7.70
2019-04-26T22:28:03.360Z,8.33
2019-04-26T22:30:35.817Z,8.70
2019-04-26T22:33:07.644Z,9.17
2019-04-26T22:35:39.568Z,8.60
2019-04-26T22:38:12.560Z,8.23
2019-04-26T22:40:44.458Z,7.67
2019-04-26T22:43:44.187Z,8.70
2019-04-26T22:46:50.015Z,8.80
2019-04-26T22:49:23.207Z,7.87
2019-04-26T22:51:56.098Z,8.20
2019-04-26T22:54:28.623Z,8.90
2019-04-26T22:57:00.602Z,8.07
2019-04-26T22:59:33.873Z,8.43
2019-04-26T23:02:10.381Z,8.33
2019-04-26T23:04:42.215Z,7.87
2019-04-26T23:07:18.235Z,8.37
2019-04-26T23:09:52.027Z,8.97
2019-04-26T23:12:53.841Z,8.00
2019-04-26T23:15:35.091Z,8.47
2019-04-26T23:18:25.756Z,8.43
2019-04-26T23:21:07.784Z,8.10
2019-04-26T23:23:49.815Z,8.43
2019-04-26T23:26:23.107Z,8.60
2019-04-26T23:28:55.280Z,8.60
2019-04-26T23:31:27.643Z,9.00
2019-04-26T23:34:00.028Z,9.13
2019-04-26T23:36:32.025Z,8.90
2019-04-26T23:39:07.606Z,9.23
2019-04-26T23:41:41.673Z,9.63
2019-04-26T23:44:14.388Z,9.60
2019-04-26T23:46:46.321Z,9.33
2019-04-26T23:49:20.379Z,9.63
2019-04-26T23:51:53.344Z,9.13
2019-04-26T23:54:28.061Z,9.37
2019-04-26T23:56:59.445Z,9.87
2019-04-26T23:59:31.638Z,9.47
